Search for airport 
image banner adimage banner adimage banner ad
image banner ad

KCPU - Calaveras Co-Maury Rasmussen Field

Located in San Andreas, United States

ICAO - CPU, IATA -

Data provided by Airmate  

General information

Coordinates: N38°8'46" W120°38'53"
Elevation is 1328 feet MSL.
Magnetic variation is 15° East
View others Airports in California

Operational data

Special qualification required
Current time UTC:
Current local time:
Weather
METAR: KCPU 290815Z AUTO 00000KT 10SM CLR 25/10 A2997 RMK AO2 T02500098
View NOTAMs / SUP AIP / TFR affecting this airport [VIEW]
Communications frequencies: [VIEW]

Runways:

RWY identifierQFULength (ft)Width (ft)SurfaceLDA (ft)
13145°360260ASPH
31325°360260ASPH

Airport contact information

Address: San Andreas United States

Satellite view of KCPU